Bachir Chihani — 7TJA — position and weather

sailwx.info

Track history (hours):
 
Tides and Currents Weather Stations Pressure Air Temp Water Temp Dewpoint Dewpoint Depression Visibility Wind Speed Wind Dir Waves Ship Positions

Bachir Chihani

Last reported at 2017-Apr-23 18:43 UTC. Time now 2017-Apr-28 06:25 UTC.
Position N 35°51' W 000°12'.

Length 280 m; draft 9.3 m.

Type: Ship (hazmat cat D). MMSI: 605106010.

Date/timePositionNaut miles runAvg speedWind from/ knotsBaromVisibWave heightAir tempDewpointWater temp
2017-Apr-23 18:43N 35°51' W 000°12'0 0.0
2017-Apr-23 18:25N 35°51' W 000°12'0 0.0
2017-Apr-23 17:31N 35°51' W 000°12'0 0.0
2017-Apr-23 17:19N 35°51' W 000°12'0 0.0
2017-Apr-23 16:49N 35°51' W 000°12'0 0.0
2017-Apr-23 16:25N 35°51' W 000°12'0 0.0
2017-Apr-23 15:55N 35°51' W 000°12'0 0.0
2017-Apr-23 15:26N 35°51' W 000°12'0 0.0
2017-Apr-23 11:58N 35°51' W 000°12'0 0.0
2017-Apr-23 11:28N 35°51' W 000°12'3 1.8
2017-Apr-23 10:00N 35°53' W 000°10'13 4.9
2017-Apr-23 07:26N 36°05' W 000°03'42 3.9
2017-Apr-22 20:54N 36°30' E 000°38'4 6.1
2017-Apr-22 20:12N 36°32' E 000°42'  
2017-Apr-19 01:02N 35°51' W 000°12'0 0.0
2017-Apr-19 00:56N 35°51' W 000°12'0 0.0
2017-Apr-18 23:53N 35°51' W 000°12'0 0.0
2017-Apr-18 22:13N 35°51' W 000°12'0 0.1
2017-Apr-18 21:53N 35°51' W 000°12'0 0.0
2017-Apr-18 21:26N 35°51' W 000°12'0 0.1
2017-Apr-18 20:56N 35°51' W 000°12'0 0.0
2017-Apr-18 20:23N 35°51' W 000°12'0 0.0
2017-Apr-18 19:53N 35°51' W 000°12'0 0.0
2017-Apr-18 19:29N 35°51' W 000°12'0 0.0
2017-Apr-18 18:34N 35°51' W 000°12'0 0.2
2017-Apr-18 18:29N 35°51' W 000°12'0 0.1
2017-Apr-18 17:49N 35°51' W 000°12'0 0.1
2017-Apr-18 17:26N 35°51' W 000°12'0 0.1
2017-Apr-18 16:41N 35°51' W 000°11'0 0.0
2017-Apr-18 16:25N 35°51' W 000°11'0 0.0
2017-Apr-18 15:59N 35°51' W 000°11'  
2017-Apr-15 19:08N 35°51' W 000°11'0 0.0
2017-Apr-15 18:56N 35°51' W 000°11'0 0.1
2017-Apr-15 18:11N 35°51' W 000°11'0 0.0
2017-Apr-15 17:52N 35°51' W 000°11'0 0.1
2017-Apr-15 17:29N 35°51' W 000°11'0 0.0
2017-Apr-15 16:47N 35°51' W 000°11'0 0.0
2017-Apr-15 16:29N 35°51' W 000°11'0 0.0
2017-Apr-14 19:31N 35°51' W 000°12'0 0.2
2017-Apr-14 17:46N 35°51' W 000°11'0 0.1
2017-Apr-14 17:20N 35°51' W 000°11'0 0.0
2017-Apr-14 16:59N 35°51' W 000°11'0 0.0
2017-Apr-14 16:11N 35°51' W 000°11'0 0.0
2017-Apr-14 15:58N 35°51' W 000°11'0 0.0
2017-Apr-14 14:35N 35°51' W 000°11'0 0.0
2017-Apr-14 14:29N 35°51' W 000°11'0 0.0
2017-Apr-14 00:25N 35°51' W 000°11'  
Track history (hours):
 
Tides and Currents Weather Stations Pressure Air Temp Water Temp Dewpoint Dewpoint Depression Visibility Wind Speed Wind Dir Waves Ship Positions

Bachir Chihani

Last reported at 2017-Apr-23 18:43 UTC. Time now 2017-Apr-28 06:25 UTC.
Position N 35°51' W 000°12'.

Length 280 m; draft 9.3 m.

Type: Ship (hazmat cat D). MMSI: 605106010.

Date/timePositionNaut miles runAvg speedWind from/ knotsBaromVisibWave heightAir tempDewpointWater temp
2017-Apr-23 18:43N 35°51' W 000°12'0 0.0
2017-Apr-23 18:25N 35°51' W 000°12'0 0.0
2017-Apr-23 17:31N 35°51' W 000°12'0 0.0
2017-Apr-23 17:19N 35°51' W 000°12'0 0.0
2017-Apr-23 16:49N 35°51' W 000°12'0 0.0
2017-Apr-23 16:25N 35°51' W 000°12'0 0.0
2017-Apr-23 15:55N 35°51' W 000°12'0 0.0
2017-Apr-23 15:26N 35°51' W 000°12'0 0.0
2017-Apr-23 11:58N 35°51' W 000°12'0 0.0
2017-Apr-23 11:28N 35°51' W 000°12'3 1.8
2017-Apr-23 10:00N 35°53' W 000°10'13 4.9
2017-Apr-23 07:26N 36°05' W 000°03'42 3.9
2017-Apr-22 20:54N 36°30' E 000°38'4 6.1
2017-Apr-22 20:12N 36°32' E 000°42'  
2017-Apr-19 01:02N 35°51' W 000°12'0 0.0
2017-Apr-19 00:56N 35°51' W 000°12'0 0.0
2017-Apr-18 23:53N 35°51' W 000°12'0 0.0
2017-Apr-18 22:13N 35°51' W 000°12'0 0.1
2017-Apr-18 21:53N 35°51' W 000°12'0 0.0
2017-Apr-18 21:26N 35°51' W 000°12'0 0.1
2017-Apr-18 20:56N 35°51' W 000°12'0 0.0
2017-Apr-18 20:23N 35°51' W 000°12'0 0.0
2017-Apr-18 19:53N 35°51' W 000°12'0 0.0
2017-Apr-18 19:29N 35°51' W 000°12'0 0.0
2017-Apr-18 18:34N 35°51' W 000°12'0 0.2
2017-Apr-18 18:29N 35°51' W 000°12'0 0.1
2017-Apr-18 17:49N 35°51' W 000°12'0 0.1
2017-Apr-18 17:26N 35°51' W 000°12'0 0.1
2017-Apr-18 16:41N 35°51' W 000°11'0 0.0
2017-Apr-18 16:25N 35°51' W 000°11'0 0.0
2017-Apr-18 15:59N 35°51' W 000°11'  
2017-Apr-15 19:08N 35°51' W 000°11'0 0.0
2017-Apr-15 18:56N 35°51' W 000°11'0 0.1
2017-Apr-15 18:11N 35°51' W 000°11'0 0.0
2017-Apr-15 17:52N 35°51' W 000°11'0 0.1
2017-Apr-15 17:29N 35°51' W 000°11'0 0.0
2017-Apr-15 16:47N 35°51' W 000°11'0 0.0
2017-Apr-15 16:29N 35°51' W 000°11'0 0.0
2017-Apr-14 19:31N 35°51' W 000°12'0 0.2
2017-Apr-14 17:46N 35°51' W 000°11'0 0.1
2017-Apr-14 17:20N 35°51' W 000°11'0 0.0
2017-Apr-14 16:59N 35°51' W 000°11'0 0.0
2017-Apr-14 16:11N 35°51' W 000°11'0 0.0
2017-Apr-14 15:58N 35°51' W 000°11'0 0.0
2017-Apr-14 14:35N 35°51' W 000°11'0 0.0
2017-Apr-14 14:29N 35°51' W 000°11'0 0.0
2017-Apr-14 00:25N 35°51' W 000°11'  

Dump ship's entire track history